createdAt,value
2018-05-17T00:04:04.441Z,9.13
2018-05-17T00:09:11.623Z,9.60
2018-05-17T00:14:18.735Z,10.30
2018-05-17T00:19:25.934Z,10.57
2018-05-17T00:24:33.184Z,10.93
2018-05-17T00:29:40.224Z,10.33
2018-05-17T00:34:47.429Z,8.80
2018-05-17T00:39:54.538Z,8.27
2018-05-17T00:45:01.726Z,7.50
2018-05-17T00:50:08.843Z,7.30
2018-05-17T00:55:16.763Z,7.47
2018-05-17T01:00:23.905Z,7.70
2018-05-17T01:05:31.098Z,6.80
2018-05-17T01:10:38.325Z,6.30
2018-05-17T01:15:45.491Z,7.50
2018-05-17T01:20:52.673Z,7.90
2018-05-17T01:26:00.582Z,7.67
2018-05-17T01:31:07.710Z,6.93
2018-05-17T01:36:15.603Z,7.63
2018-05-17T01:41:22.842Z,7.13
2018-05-17T01:46:29.917Z,7.57
2018-05-17T01:51:37.127Z,7.33
2018-05-17T01:56:45.031Z,7.93
2018-05-17T02:01:52.181Z,7.50
2018-05-17T02:06:59.238Z,7.60
2018-05-17T02:12:06.442Z,8.73
2018-05-17T02:17:13.534Z,7.87
2018-05-17T02:22:20.685Z,8.73
2018-05-17T02:27:27.790Z,8.40
2018-05-17T02:32:35.666Z,9.93
2018-05-17T02:37:43.589Z,10.70
2018-05-17T02:42:50.802Z,10.30
2018-05-17T02:47:58.008Z,10.97
2018-05-17T02:53:05.225Z,12.80
2018-05-17T02:58:12.335Z,13.67
2018-05-17T03:03:19.447Z,13.53
2018-05-17T03:08:26.681Z,14.90
2018-05-17T03:13:34.510Z,15.10
2018-05-17T03:18:41.654Z,16.27
2018-05-17T03:23:48.880Z,14.70
2018-05-17T03:28:56.067Z,14.50
2018-05-17T03:34:03.858Z,15.83
2018-05-17T03:39:10.912Z,15.50
2018-05-17T03:44:18.862Z,18.77
2018-05-17T03:49:26.797Z,17.07
2018-05-17T03:54:34.586Z,17.40
2018-05-17T03:59:41.714Z,16.83
2018-05-17T04:05:01.363Z,16.30
2018-05-17T04:10:08.382Z,16.30
2018-05-17T04:15:16.311Z,16.77
2018-05-17T04:20:24.315Z,16.07
2018-05-17T04:25:31.438Z,15.03
2018-05-17T04:30:39.340Z,16.80
2018-05-17T04:35:47.385Z,14.73
2018-05-17T04:40:54.422Z,14.97
2018-05-17T04:46:01.574Z,15.40
2018-05-17T04:51:08.674Z,13.47
2018-05-17T04:56:15.913Z,11.70
2018-05-17T05:01:22.983Z,13.07
2018-05-17T05:06:30.134Z,12.30
2018-05-17T05:11:37.267Z,11.30
2018-05-17T05:16:45.202Z,11.30
2018-05-17T05:21:52.450Z,12.67
2018-05-17T05:27:00.322Z,12.57
2018-05-17T05:32:08.251Z,12.23
2018-05-17T05:37:15.425Z,9.80
2018-05-17T05:42:22.639Z,9.90
2018-05-17T05:47:29.798Z,9.07
2018-05-17T05:52:36.968Z,9.23
2018-05-17T05:57:44.170Z,8.13
2018-05-17T06:02:51.341Z,7.77
2018-05-17T06:07:58.411Z,7.50
2018-05-17T06:13:05.491Z,7.50
2018-05-17T06:18:12.598Z,7.43
2018-05-17T06:23:20.482Z,5.93
2018-05-17T06:28:27.574Z,6.13
2018-05-17T06:33:34.781Z,6.60
2018-05-17T06:38:41.870Z,7.10
2018-05-17T06:43:49.188Z,7.23
2018-05-17T06:48:56.190Z,6.00
2018-05-17T06:54:04.102Z,7.40
2018-05-17T06:59:11.217Z,5.97
2018-05-17T07:04:19.124Z,5.37
2018-05-17T07:09:26.321Z,5.60
2018-05-17T07:14:34.246Z,5.33
2018-05-17T07:19:41.462Z,5.43
2018-05-17T07:24:48.595Z,5.33
2018-05-17T07:29:55.910Z,5.13
2018-05-17T07:35:03.797Z,5.57
2018-05-17T07:40:11.686Z,5.37
2018-05-17T07:45:18.882Z,5.80
2018-05-17T07:50:25.909Z,4.70
2018-05-17T07:55:33.119Z,5.20
2018-05-17T08:00:41.016Z,5.73
2018-05-17T08:05:48.221Z,4.87
2018-05-17T08:10:55.370Z,5.10
2018-05-17T08:16:02.493Z,4.40
2018-05-17T08:21:10.350Z,4.30
2018-05-17T08:26:17.450Z,4.47
2018-05-17T08:31:25.362Z,4.30
2018-05-17T08:36:32.636Z,4.00
2018-05-17T08:41:39.721Z,3.60
2018-05-17T08:46:47.036Z,3.63
2018-05-17T08:51:54.070Z,3.20
2018-05-17T08:57:01.174Z,4.50
2018-05-17T09:02:08.989Z,4.50
2018-05-17T09:07:16.037Z,3.47
2018-05-17T09:12:23.202Z,4.57
2018-05-17T09:17:30.327Z,3.77
2018-05-17T09:22:37.442Z,3.63
2018-05-17T09:27:44.609Z,3.80
2018-05-17T09:32:52.537Z,3.77
2018-05-17T09:37:59.710Z,3.43
2018-05-17T09:43:06.925Z,3.97
2018-05-17T09:48:14.138Z,4.03
2018-05-17T09:53:21.365Z,3.67
2018-05-17T09:58:29.245Z,3.37
2018-05-17T10:03:36.447Z,3.57
2018-05-17T10:08:43.511Z,3.60
2018-05-17T10:13:50.606Z,3.40
2018-05-17T10:18:57.661Z,3.30
2018-05-17T10:24:05.580Z,3.90
2018-05-17T10:29:13.487Z,2.80
2018-05-17T10:34:21.418Z,3.20
2018-05-17T10:39:29.230Z,2.97
2018-05-17T10:44:36.422Z,2.93
2018-05-17T10:49:43.642Z,3.23
2018-05-17T10:54:50.793Z,3.90
2018-05-17T10:59:58.637Z,3.07
2018-05-17T11:05:05.852Z,3.37
2018-05-17T11:10:13.766Z,3.20
2018-05-17T11:15:20.978Z,3.03
2018-05-17T11:20:28.098Z,2.97
2018-05-17T11:25:35.223Z,3.50
2018-05-17T11:30:42.330Z,3.60
2018-05-17T11:35:50.206Z,3.53
2018-05-17T11:40:57.363Z,3.37
2018-05-17T11:46:04.505Z,4.33
2018-05-17T11:51:11.754Z,3.17
2018-05-17T11:56:19.734Z,3.73
2018-05-17T12:01:26.928Z,3.90
2018-05-17T12:06:33.992Z,3.93
2018-05-17T12:11:41.233Z,4.13
2018-05-17T12:16:48.333Z,3.40
2018-05-17T12:21:56.281Z,4.03
2018-05-17T12:27:03.474Z,3.90
2018-05-17T12:32:11.482Z,4.10
2018-05-17T12:37:19.293Z,3.90
2018-05-17T12:42:26.386Z,4.20
2018-05-17T12:47:33.635Z,4.20
2018-05-17T12:52:40.794Z,3.73
2018-05-17T12:57:47.957Z,4.77
2018-05-17T13:02:55.106Z,4.50
2018-05-17T13:08:02.254Z,4.93
2018-05-17T13:13:09.422Z,5.27
2018-05-17T13:18:16.539Z,4.77
2018-05-17T13:23:23.769Z,5.40
2018-05-17T13:28:34.942Z,4.50
2018-05-17T13:33:42.060Z,4.87
2018-05-17T13:38:49.330Z,4.40
2018-05-17T13:43:57.342Z,4.87
2018-05-17T13:49:04.492Z,4.40
2018-05-17T13:54:11.546Z,5.03
2018-05-17T13:59:19.589Z,5.00
2018-05-17T14:04:27.489Z,5.20
2018-05-17T14:09:34.645Z,4.60
2018-05-17T14:14:41.743Z,4.90
2018-05-17T14:19:48.850Z,4.87
2018-05-17T14:24:56.109Z,4.73
2018-05-17T14:30:04.027Z,5.00
2018-05-17T14:35:11.844Z,4.97
2018-05-17T14:40:19.042Z,5.10
2018-05-17T14:45:26.171Z,6.07
2018-05-17T14:50:33.430Z,6.37
2018-05-17T14:55:40.657Z,5.63
2018-05-17T15:00:47.800Z,5.73
2018-05-17T15:05:55.050Z,6.33
2018-05-17T15:11:02.981Z,6.83
2018-05-17T15:16:10.105Z,7.00
2018-05-17T15:21:17.226Z,7.00
2018-05-17T15:26:25.206Z,6.60
2018-05-17T15:31:32.370Z,7.40
2018-05-17T15:36:40.340Z,7.63
2018-05-17T15:41:47.564Z,8.90
2018-05-17T15:46:55.545Z,8.17
2018-05-17T15:52:02.666Z,9.20
2018-05-17T15:57:10.572Z,8.63
2018-05-17T16:02:17.733Z,8.93
2018-05-17T16:07:25.589Z,10.67
2018-05-17T16:12:32.755Z,9.97
2018-05-17T16:17:39.951Z,10.23
2018-05-17T16:22:47.054Z,14.27
2018-05-17T16:27:54.138Z,9.03
2018-05-17T16:33:01.344Z,8.10
2018-05-17T16:38:08.498Z,8.70
2018-05-17T16:43:16.441Z,8.77
2018-05-17T16:48:23.576Z,8.60
2018-05-17T16:53:30.845Z,8.13
2018-05-17T16:58:38.784Z,8.73
2018-05-17T17:03:45.745Z,8.40
2018-05-17T17:08:53.666Z,8.60
2018-05-17T17:14:01.573Z,8.47
2018-05-17T17:19:08.754Z,7.53
2018-05-17T17:24:16.033Z,8.60
2018-05-17T17:29:23.913Z,8.73
2018-05-17T17:34:31.081Z,7.50
2018-05-17T17:39:38.218Z,7.27
2018-05-17T17:44:45.330Z,7.60
2018-05-17T17:49:53.425Z,7.70
2018-05-17T17:55:00.467Z,7.20
2018-05-17T18:00:07.691Z,7.00
2018-05-17T18:05:14.906Z,6.43
2018-05-17T18:10:21.797Z,6.77
2018-05-17T18:15:29.687Z,5.80
2018-05-17T18:20:36.894Z,6.40
2018-05-17T18:25:44.092Z,5.47
2018-05-17T18:30:51.246Z,6.20
2018-05-17T18:35:59.073Z,5.27
2018-05-17T18:41:06.283Z,6.10
2018-05-17T18:46:13.382Z,4.80
2018-05-17T18:51:21.311Z,4.77
2018-05-17T18:56:28.409Z,4.77
2018-05-17T19:01:35.549Z,3.93
2018-05-17T19:06:42.729Z,5.00
2018-05-17T19:11:50.646Z,4.30
2018-05-17T19:16:58.552Z,4.00
2018-05-17T19:22:05.745Z,4.17
2018-05-17T19:27:12.997Z,4.27
2018-05-17T19:32:20.326Z,4.10
2018-05-17T19:37:28.258Z,4.53
2018-05-17T19:42:35.434Z,3.67
2018-05-17T19:47:42.637Z,3.80
2018-05-17T19:52:49.807Z,4.03
2018-05-17T19:57:56.877Z,3.77
2018-05-17T20:03:04.098Z,3.70
2018-05-17T20:08:11.341Z,4.20
2018-05-17T20:13:18.457Z,4.47
2018-05-17T20:18:25.493Z,4.53
2018-05-17T20:23:32.631Z,4.80
2018-05-17T20:28:40.526Z,4.27
2018-05-17T20:33:47.722Z,5.00
2018-05-17T20:38:54.833Z,5.00
2018-05-17T20:44:01.955Z,5.03
2018-05-17T20:49:09.065Z,5.63
2018-05-17T20:54:16.222Z,5.60
2018-05-17T20:59:24.071Z,5.50
2018-05-17T21:04:31.198Z,5.07
2018-05-17T21:09:39.082Z,5.57
2018-05-17T21:14:46.163Z,6.37
2018-05-17T21:19:53.360Z,6.23
2018-05-17T21:25:00.586Z,6.57
2018-05-17T21:30:08.495Z,5.47
2018-05-17T21:35:15.618Z,5.43
2018-05-17T21:40:22.810Z,4.03
2018-05-17T21:45:30.008Z,5.50
2018-05-17T21:50:37.826Z,5.13
2018-05-17T21:55:45.634Z,5.00
2018-05-17T22:00:52.765Z,4.90
2018-05-17T22:06:00.670Z,4.80
2018-05-17T22:11:07.881Z,4.80
2018-05-17T22:16:15.010Z,4.13
2018-05-17T22:21:22.183Z,4.30
2018-05-17T22:26:29.366Z,4.43
2018-05-17T22:31:36.554Z,4.20
2018-05-17T22:36:43.790Z,3.93
2018-05-17T22:41:51.634Z,4.70
2018-05-17T22:46:58.710Z,4.37
2018-05-17T22:52:06.634Z,4.00
2018-05-17T22:57:13.841Z,4.03
2018-05-17T23:02:20.975Z,4.10
2018-05-17T23:07:28.237Z,4.80
2018-05-17T23:12:35.390Z,4.80
2018-05-17T23:17:42.635Z,3.90
2018-05-17T23:22:49.762Z,3.50
2018-05-17T23:27:57.666Z,3.50
2018-05-17T23:33:04.775Z,4.00
2018-05-17T23:38:11.971Z,3.90
2018-05-17T23:43:19.887Z,4.03
2018-05-17T23:48:27.209Z,3.10
2018-05-17T23:53:34.377Z,4.03
2018-05-17T23:58:42.321Z,3.27
